New Iberia, LA (70562)

11:03 AM CST on December 28, 2014 (GMT -0600)
Belair | Change Station
CLOSE
Current Station
Personal Weather Station
Location: New Iberia, LA
Elevation: 18 ft
Nearby Weather Stations

Elev 18 ft 29.99 °N, 91.77 °W | Updated 8 seconds ago

Overcast
Overcast
55.4 °F
Feels Like 55.4 °F
N
1.6
Wind Variable Wind from North
Gusts 6.9 mph

Today
High -- | Low -- °F
--% Chance of Precip.
Yesterday
High -- | Low -- °F
Precip. -- in
7:01 AM 5:15 PM
Waxing Crescent, 49% visible
Pressure 30.14 in
Visibility 10.0 miles
Clouds Overcast 700 ft
Dew Point 47 °F
Humidity 73%
Rainfall 0.00 in
Snow Depth Not available.
UV 1 out of 12
Pollen .60 out of 12
Air Quality Not available.
Flu Activity Not available.
METAR KARA 281653Z 02013KT 10SM OVC007 13/11 A3014 RMK AO2 SLP204 T01280111

More Conditions Fewer Conditions

Pressure 30.14 in
Visibility 10.0 miles
Clouds Overcast 700 ft
Dew Point 47 °F
Humidity 73%
Rainfall 0.00 in
Snow Depth Not available.
UV 1 out of 12
Pollen .60 out of 12
Air Quality Not available.
Flu Activity Not available.
METAR KARA 281653Z 02013KT 10SM OVC007 13/11 A3014 RMK AO2 SLP204 T01280111

More Conditions Fewer Conditions

Nowcast | as of 8:56 am CST on December 28, 2014

Patchy light rain will continue through the morning hours. Rain amounts will be less than a tenth of an inch.

×

10-Day Weather Forecast

Almanac

Astronomy

Dec. 28, 2014 Rise Set
Actual Time
Civil Twilight
Nautical Twilight
Astronomical Twilight
Moon
Length of Visible Light
Length of Day
Tomorrow will be .
, % of the Moon is Illuminated

Today's Extremes

State Highs State Lows

Community

WunderPhotos

Upload Photos

1,781,349 photos uploaded!

WunderBlogs® & News

Nearby

Air Quality

  Air Quality AQ Index Pollutant
Not available.

Snow Depth

Station Depth Elevation

Earthquake Activity

City Distance Mag. Time & Date
Minimum magnitude displayed is 2.5.

Coastal Water Temperatures

Place Temperature

Nearby Weather Stations